DAL1772 MROC-MRLB
Flight info
| Callsign | DAL1772 |
|---|---|
| Flight time | 0h 22m |
| Altitude | 13000 |
| Route | NANJO3L ADRUL |
| Aircraft | A332/H-SDE3GHIJ2J3J5M1RVWXY/LB2D1 |
Departure
| Time | 2026-04-29 01:49 |
|---|---|
| Airport | Juan Santamaría International Airport (MROC) |
Arrival
| Time | 2026-04-29 02:11 |
|---|---|
| Airport | Daniel Oduber Quirós International Airport (MRLB) |
| Time | Latitude | Longitude | Altitude | Speed | Heading |
|---|---|---|---|---|---|
| 2026-04-29 01:30 | 9.99699 | -84.20448 | 3016 ft | 0 kts | 338° |
| 2026-04-29 01:41 | 9.99689 | -84.20444 | 3020 ft | 2 kts | 336° |
| 2026-04-29 01:41 | 9.99674 | -84.20437 | 3017 ft | 2 kts | 337° |
| 2026-04-29 01:41 | 9.99659 | -84.20429 | 3019 ft | 2 kts | 265° |
| 2026-04-29 01:42 | 9.99663 | -84.20416 | 3028 ft | 1 kts | 249° |
| 2026-04-29 01:42 | 9.99664 | -84.20414 | 3028 ft | 0 kts | 249° |
| 2026-04-29 01:42 | 9.99663 | -84.20416 | 3028 ft | 0 kts | 249° |
| 2026-04-29 01:44 | 9.99655 | -84.20436 | 3023 ft | 7 kts | 249° |
| 2026-04-29 01:44 | 9.99626 | -84.20513 | 3013 ft | 15 kts | 250° |
| 2026-04-29 01:44 | 9.99580 | -84.20636 | 3007 ft | 22 kts | 249° |
| 2026-04-29 01:44 | 9.99522 | -84.20791 | 3001 ft | 25 kts | 249° |
| 2026-04-29 01:45 | 9.99472 | -84.20925 | 2994 ft | 22 kts | 249° |
| 2026-04-29 01:45 | 9.99413 | -84.21082 | 2986 ft | 25 kts | 249° |
| 2026-04-29 01:45 | 9.99361 | -84.21220 | 2980 ft | 23 kts | 250° |
| 2026-04-29 01:45 | 9.99303 | -84.21379 | 2973 ft | 19 kts | 249° |
| 2026-04-29 01:46 | 9.99251 | -84.21516 | 2967 ft | 23 kts | 249° |
| 2026-04-29 01:46 | 9.99194 | -84.21673 | 2957 ft | 24 kts | 249° |
| 2026-04-29 01:46 | 9.99130 | -84.21840 | 2943 ft | 19 kts | 248° |
| 2026-04-29 01:46 | 9.99097 | -84.21972 | 2938 ft | 20 kts | 275° |
| 2026-04-29 01:47 | 9.99087 | -84.22118 | 2933 ft | 22 kts | 251° |
| 2026-04-29 01:47 | 9.99000 | -84.22193 | 2931 ft | 12 kts | 158° |
| 2026-04-29 01:47 | 9.98934 | -84.22159 | 2929 ft | 6 kts | 134° |
| 2026-04-29 01:47 | 9.98932 | -84.22112 | 2934 ft | 8 kts | 74° |
| 2026-04-29 01:48 | 9.98939 | -84.22096 | 2931 ft | 0 kts | 69° |
| 2026-04-29 01:48 | 9.98966 | -84.22022 | 2940 ft | 38 kts | 69° |
| 2026-04-29 01:48 | 9.99133 | -84.21568 | 2947 ft | 97 kts | 69° |
| 2026-04-29 01:48 | 9.99434 | -84.20768 | 3001 ft | 144 kts | 69° |
| 2026-04-29 01:49 | 9.99826 | -84.19748 | 3311 ft | 164 kts | 70° |
| 2026-04-29 01:49 | 10.00302 | -84.18685 | 4030 ft | 165 kts | 56° |
| 2026-04-29 01:49 | 10.01281 | -84.18113 | 4704 ft | 174 kts | 6° |
| 2026-04-29 01:49 | 10.02498 | -84.18473 | 4965 ft | 201 kts | 328° |
| 2026-04-29 01:50 | 10.03656 | -84.19458 | 4973 ft | 232 kts | 317° |
| 2026-04-29 01:50 | 10.04837 | -84.20648 | 4967 ft | 244 kts | 313° |
| 2026-04-29 01:50 | 10.05697 | -84.22070 | 5168 ft | 230 kts | 294° |
| 2026-04-29 01:50 | 10.06288 | -84.23615 | 5508 ft | 245 kts | 292° |
| 2026-04-29 01:51 | 10.06902 | -84.25322 | 5879 ft | 268 kts | 291° |
| 2026-04-29 01:51 | 10.07560 | -84.27146 | 6433 ft | 280 kts | 292° |
| 2026-04-29 01:51 | 10.08248 | -84.29030 | 7208 ft | 287 kts | 291° |
| 2026-04-29 01:51 | 10.08939 | -84.30911 | 8073 ft | 288 kts | 291° |
| 2026-04-29 01:52 | 10.09639 | -84.32817 | 8671 ft | 288 kts | 291° |
| 2026-04-29 01:52 | 10.10345 | -84.34727 | 9328 ft | 292 kts | 292° |
| 2026-04-29 01:52 | 10.11106 | -84.36642 | 10274 ft | 295 kts | 292° |
| 2026-04-29 01:52 | 10.11920 | -84.38633 | 10708 ft | 317 kts | 293° |
| 2026-04-29 01:53 | 10.12796 | -84.40759 | 11201 ft | 334 kts | 293° |
| 2026-04-29 01:53 | 10.13704 | -84.42960 | 11934 ft | 341 kts | 293° |
| 2026-04-29 01:53 | 10.14597 | -84.45126 | 12540 ft | 346 kts | 293° |
| 2026-04-29 01:53 | 10.15531 | -84.47393 | 12842 ft | 350 kts | 293° |
| 2026-04-29 01:54 | 10.16465 | -84.49664 | 12911 ft | 347 kts | 293° |
| 2026-04-29 01:54 | 10.17394 | -84.51923 | 12897 ft | 346 kts | 293° |
| 2026-04-29 01:54 | 10.18322 | -84.54179 | 12895 ft | 346 kts | 293° |
| 2026-04-29 01:54 | 10.19250 | -84.56437 | 12894 ft | 346 kts | 293° |
| 2026-04-29 01:55 | 10.20177 | -84.58691 | 12899 ft | 346 kts | 292° |
| 2026-04-29 01:55 | 10.21073 | -84.60872 | 12899 ft | 346 kts | 292° |
| 2026-04-29 01:55 | 10.22000 | -84.63129 | 12899 ft | 346 kts | 292° |
| 2026-04-29 01:55 | 10.22905 | -84.65331 | 12903 ft | 329 kts | 293° |
| 2026-04-29 01:56 | 10.23724 | -84.67326 | 12889 ft | 312 kts | 292° |
| 2026-04-29 01:56 | 10.24537 | -84.69306 | 12862 ft | 297 kts | 292° |
| 2026-04-29 01:56 | 10.25319 | -84.71212 | 12677 ft | 289 kts | 292° |
| 2026-04-29 01:56 | 10.26080 | -84.73066 | 12448 ft | 286 kts | 292° |
| 2026-04-29 01:57 | 10.26843 | -84.74925 | 12202 ft | 285 kts | 292° |
| 2026-04-29 01:57 | 10.27603 | -84.76776 | 12004 ft | 283 kts | 292° |
| 2026-04-29 01:57 | 10.28333 | -84.78556 | 11883 ft | 283 kts | 292° |
| 2026-04-29 01:57 | 10.29017 | -84.80223 | 11775 ft | 283 kts | 292° |
| 2026-04-29 01:58 | 10.29773 | -84.82067 | 11634 ft | 282 kts | 292° |
| 2026-04-29 01:58 | 10.30527 | -84.83907 | 11510 ft | 282 kts | 292° |
| 2026-04-29 01:58 | 10.31279 | -84.85741 | 11400 ft | 281 kts | 292° |
| 2026-04-29 01:58 | 10.32031 | -84.87575 | 11231 ft | 281 kts | 292° |
| 2026-04-29 01:59 | 10.32768 | -84.89374 | 11023 ft | 279 kts | 293° |
| 2026-04-29 01:59 | 10.33516 | -84.91202 | 10813 ft | 278 kts | 293° |
| 2026-04-29 01:59 | 10.34259 | -84.93015 | 10601 ft | 277 kts | 293° |
| 2026-04-29 01:59 | 10.35001 | -84.94826 | 10439 ft | 276 kts | 293° |
| 2026-04-29 02:00 | 10.35738 | -84.96625 | 10272 ft | 275 kts | 293° |
| 2026-04-29 02:00 | 10.36406 | -84.98256 | 10111 ft | 275 kts | 293° |
| 2026-04-29 02:00 | 10.37090 | -84.99927 | 9918 ft | 274 kts | 293° |
| 2026-04-29 02:00 | 10.37817 | -85.01704 | 9686 ft | 271 kts | 293° |
| 2026-04-29 02:01 | 10.38539 | -85.03468 | 9323 ft | 270 kts | 293° |
| 2026-04-29 02:01 | 10.39260 | -85.05230 | 8975 ft | 271 kts | 294° |
| 2026-04-29 02:01 | 10.39983 | -85.06997 | 8623 ft | 271 kts | 294° |
| 2026-04-29 02:01 | 10.40703 | -85.08759 | 8285 ft | 270 kts | 294° |
| 2026-04-29 02:02 | 10.41421 | -85.10515 | 7983 ft | 268 kts | 294° |
| 2026-04-29 02:02 | 10.42136 | -85.12259 | 7719 ft | 265 kts | 295° |
| 2026-04-29 02:02 | 10.43013 | -85.13885 | 7443 ft | 261 kts | 307° |
| 2026-04-29 02:02 | 10.44113 | -85.15341 | 7132 ft | 259 kts | 310° |
| 2026-04-29 02:03 | 10.45256 | -85.16752 | 6834 ft | 258 kts | 311° |
| 2026-04-29 02:03 | 10.46399 | -85.18153 | 6491 ft | 257 kts | 311° |
| 2026-04-29 02:03 | 10.47525 | -85.19540 | 6138 ft | 252 kts | 311° |
| 2026-04-29 02:03 | 10.48638 | -85.20916 | 5782 ft | 253 kts | 311° |
| 2026-04-29 02:04 | 10.49753 | -85.22299 | 5423 ft | 251 kts | 312° |
| 2026-04-29 02:04 | 10.50860 | -85.23668 | 5055 ft | 250 kts | 312° |
| 2026-04-29 02:04 | 10.51966 | -85.25038 | 4697 ft | 249 kts | 312° |
| 2026-04-29 02:04 | 10.53055 | -85.26388 | 4350 ft | 244 kts | 312° |
| 2026-04-29 02:05 | 10.54095 | -85.27681 | 4006 ft | 227 kts | 314° |
| 2026-04-29 02:05 | 10.55063 | -85.28887 | 3659 ft | 220 kts | 314° |
| 2026-04-29 02:05 | 10.56032 | -85.30086 | 3296 ft | 220 kts | 315° |
| 2026-04-29 02:05 | 10.57001 | -85.31285 | 2973 ft | 216 kts | 314° |
| 2026-04-29 02:06 | 10.57924 | -85.32437 | 2847 ft | 203 kts | 314° |
| 2026-04-29 02:06 | 10.58813 | -85.33534 | 2828 ft | 201 kts | 313° |
| 2026-04-29 02:06 | 10.59692 | -85.34621 | 2819 ft | 196 kts | 312° |
| 2026-04-29 02:06 | 10.60537 | -85.35673 | 2827 ft | 189 kts | 313° |
| 2026-04-29 02:07 | 10.61370 | -85.36708 | 2823 ft | 188 kts | 314° |
| 2026-04-29 02:07 | 10.62194 | -85.37733 | 2820 ft | 187 kts | 314° |
| 2026-04-29 02:07 | 10.63003 | -85.38737 | 2817 ft | 185 kts | 313° |
| 2026-04-29 02:07 | 10.63743 | -85.39826 | 2812 ft | 187 kts | 298° |
| 2026-04-29 02:08 | 10.64002 | -85.41105 | 2792 ft | 186 kts | 268° |
| 2026-04-29 02:08 | 10.63728 | -85.42354 | 2643 ft | 177 kts | 250° |
| 2026-04-29 02:08 | 10.63326 | -85.43489 | 2395 ft | 164 kts | 249° |
| 2026-04-29 02:08 | 10.62917 | -85.44533 | 2198 ft | 165 kts | 248° |
| 2026-04-29 02:09 | 10.62480 | -85.45635 | 2002 ft | 170 kts | 248° |
| 2026-04-29 02:09 | 10.62057 | -85.46772 | 1788 ft | 173 kts | 249° |
| 2026-04-29 02:09 | 10.61664 | -85.47934 | 1578 ft | 174 kts | 250° |
| 2026-04-29 02:09 | 10.61267 | -85.49082 | 1355 ft | 170 kts | 249° |
| 2026-04-29 02:10 | 10.60877 | -85.50202 | 1082 ft | 167 kts | 248° |
| 2026-04-29 02:10 | 10.60465 | -85.51281 | 835 ft | 161 kts | 251° |
| 2026-04-29 02:10 | 10.60098 | -85.52329 | 584 ft | 155 kts | 250° |
| 2026-04-29 02:10 | 10.59739 | -85.53336 | 326 ft | 148 kts | 248° |
| 2026-04-29 02:11 | 10.59408 | -85.54245 | 269 ft | 116 kts | 250° |
| 2026-04-29 02:11 | 10.59222 | -85.54764 | 263 ft | 55 kts | 249° |
| 2026-04-29 02:11 | 10.59097 | -85.55111 | 264 ft | 40 kts | 250° |
| 2026-04-29 02:11 | 10.59044 | -85.55268 | 264 ft | 24 kts | 257° |
| 2026-04-29 02:12 | 10.59067 | -85.55443 | 261 ft | 27 kts | 294° |
| 2026-04-29 02:12 | 10.59096 | -85.55609 | 259 ft | 21 kts | 252° |
| 2026-04-29 02:12 | 10.59029 | -85.55657 | 259 ft | 0 kts | 163° |
| 2026-04-29 02:12 | 10.59008 | -85.55650 | 259 ft | 12 kts | 163° |
| 2026-04-29 02:13 | 10.58944 | -85.55594 | 260 ft | 9 kts | 107° |
| 2026-04-29 02:13 | 10.58960 | -85.55506 | 260 ft | 19 kts | 75° |
| 2026-04-29 02:13 | 10.59012 | -85.55344 | 263 ft | 28 kts | 70° |
| 2026-04-29 02:13 | 10.59087 | -85.55145 | 264 ft | 33 kts | 69° |
| 2026-04-29 02:14 | 10.59169 | -85.54920 | 264 ft | 37 kts | 70° |
| 2026-04-29 02:14 | 10.59257 | -85.54671 | 264 ft | 37 kts | 71° |
| 2026-04-29 02:14 | 10.59339 | -85.54429 | 267 ft | 35 kts | 71° |
| 2026-04-29 02:14 | 10.59424 | -85.54201 | 270 ft | 34 kts | 69° |
| 2026-04-29 02:15 | 10.59504 | -85.53986 | 272 ft | 29 kts | 70° |
| 2026-04-29 02:15 | 10.59579 | -85.53841 | 274 ft | 16 kts | 28° |
| 2026-04-29 02:15 | 10.59643 | -85.53839 | 274 ft | 14 kts | 341° |
| 2026-04-29 02:15 | 10.59758 | -85.53872 | 274 ft | 4 kts | 11° |
| 2026-04-29 02:16 | 10.59775 | -85.53858 | 274 ft | 5 kts | 41° |
| 2026-04-29 02:16 | 10.59792 | -85.53823 | 275 ft | 7 kts | 70° |
| 2026-04-29 02:16 | 10.59806 | -85.53786 | 275 ft | 10 kts | 66° |
| 2026-04-29 02:16 | 10.59847 | -85.53760 | 275 ft | 5 kts | 2° |
| 2026-04-29 02:17 | 10.59893 | -85.53774 | 275 ft | 9 kts | 340° |
| 2026-04-29 02:17 | 10.59913 | -85.53781 | 275 ft | 0 kts | 340° |